Time;durP1;ratioP1;P1;durP2;ratioP2;P2;SDS_P1;SDS_P2;PMS_P1;PMS_P2;Temp;Humidity;BMP_temperature;BMP_pressure;BME280_temperature;BME280_humidity;BME280_pressure;Samples;Min_cycle;Max_cycle;Signal;HPM_P1;HPM_P2
2022/03/26 00:00:34;;;;;;;41.05;23.17;;;;;;;;;;5051768;28;20044;-66
2022/03/26 00:03:01;;;;;;;40.30;22.75;;;;;;;;;;5051555;28;20053;-66
2022/03/26 00:05:28;;;;;;;42.75;23.38;;;;;;;;;;5051785;28;20140;-66
2022/03/26 00:07:54;;;;;;;43.47;22.75;;;;;;;;;;5051946;28;20057;-65
2022/03/26 00:10:21;;;;;;;42.50;23.27;;;;;;;;;;5051768;28;20048;-66
2022/03/26 00:12:48;;;;;;;40.28;22.52;;;;;;;;;;5051459;28;20045;-66
2022/03/26 00:15:14;;;;;;;40.80;22.42;;;;;;;;;;5051537;28;20576;-66
2022/03/26 00:17:41;;;;;;;40.88;24.05;;;;;;;;;;5051885;28;20045;-65
2022/03/26 00:20:08;;;;;;;38.92;23.48;;;;;;;;;;5051800;28;20106;-66
2022/03/26 00:22:35;;;;;;;39.85;23.65;;;;;;;;;;5051401;28;20095;-66
2022/03/26 00:25:02;;;;;;;39.30;23.70;;;;;;;;;;5051653;28;20465;-66
2022/03/26 00:27:30;;;;;;;41.40;23.38;;;;;;;;;;5051555;28;20103;-66
2022/03/26 00:29:57;;;;;;;47.80;24.80;;;;;;;;;;5050450;28;20049;-66
2022/03/26 00:32:24;;;;;;;40.25;23.85;;;;;;;;;;5051314;28;20053;-66
2022/03/26 00:34:50;;;;;;;42.38;23.58;;;;;;;;;;5051066;28;20083;-66
2022/03/26 00:37:17;;;;;;;36.88;21.70;;;;;;;;;;5051624;28;20053;-66
2022/03/26 00:39:43;;;;;;;44.17;24.58;;;;;;;;;;5051610;28;20040;-66
2022/03/26 00:42:10;;;;;;;42.75;24.52;;;;;;;;;;5051270;28;20057;-66
2022/03/26 00:44:37;;;;;;;41.75;24.38;;;;;;;;;;5051337;28;20053;-66
2022/03/26 00:47:04;;;;;;;44.75;24.48;;;;;;;;;;5051616;28;20370;-66
2022/03/26 00:49:31;;;;;;;41.38;25.00;;;;;;;;;;5051306;28;20491;-66
2022/03/26 00:51:58;;;;;;;43.65;24.23;;;;;;;;;;5051396;28;20057;-66
2022/03/26 00:54:24;;;;;;;42.25;24.27;;;;;;;;;;5051561;28;20404;-66
2022/03/26 00:56:51;;;;;;;37.15;22.40;;;;;;;;;;5051277;28;20052;-65
2022/03/26 00:59:18;;;;;;;42.08;22.73;;;;;;;;;;5051556;28;20041;-65
2022/03/26 01:01:44;;;;;;;43.40;22.80;;;;;;;;;;5050958;28;20115;-65
2022/03/26 01:04:12;;;;;;;40.75;23.45;;;;;;;;;;5051355;28;20081;-66
2022/03/26 01:06:38;;;;;;;41.67;24.38;;;;;;;;;;5051326;28;20495;-66
2022/03/26 01:09:05;;;;;;;40.30;23.52;;;;;;;;;;5051213;28;20048;-66
2022/03/26 01:11:31;;;;;;;44.40;23.42;;;;;;;;;;5050854;28;20045;-66
2022/03/26 01:13:58;;;;;;;41.83;23.25;;;;;;;;;;5051135;28;20099;-66
2022/03/26 01:16:25;;;;;;;45.42;22.77;;;;;;;;;;5051147;28;20061;-66
2022/03/26 01:18:53;;;;;;;42.00;22.92;;;;;;;;;;5051093;28;20052;-66
2022/03/26 01:21:20;;;;;;;37.08;22.13;;;;;;;;;;5050955;28;20049;-66
2022/03/26 01:23:47;;;;;;;43.42;23.05;;;;;;;;;;5050929;28;20053;-66
2022/03/26 01:26:14;;;;;;;42.72;22.98;;;;;;;;;;5050964;28;20079;-66
2022/03/26 01:28:41;;;;;;;40.88;22.75;;;;;;;;;;5053248;28;20488;-66
2022/03/26 01:31:07;;;;;;;40.95;23.02;;;;;;;;;;5054407;28;20049;-66
2022/03/26 01:33:34;;;;;;;44.67;23.60;;;;;;;;;;5053766;28;20088;-66
2022/03/26 01:36:02;;;;;;;39.70;23.23;;;;;;;;;;5054641;28;20049;-66
2022/03/26 01:38:28;;;;;;;42.28;22.92;;;;;;;;;;5053266;28;20532;-66
2022/03/26 01:40:55;;;;;;;45.50;24.23;;;;;;;;;;5054450;28;20461;-66
2022/03/26 01:43:22;;;;;;;44.22;24.23;;;;;;;;;;5054424;28;20052;-66
2022/03/26 01:45:48;;;;;;;41.10;21.75;;;;;;;;;;5054630;28;20049;-66
2022/03/26 01:48:15;;;;;;;42.30;23.17;;;;;;;;;;5054344;28;20099;-66
2022/03/26 01:50:42;;;;;;;44.35;23.55;;;;;;;;;;5054053;28;20499;-66
2022/03/26 01:53:08;;;;;;;37.45;22.60;;;;;;;;;;5053983;28;20503;-66
2022/03/26 01:55:35;;;;;;;40.97;22.33;;;;;;;;;;5054150;28;20053;-66
2022/03/26 01:58:02;;;;;;;42.67;24.13;;;;;;;;;;5053193;28;20102;-66
2022/03/26 02:00:29;;;;;;;42.40;24.27;;;;;;;;;;5054223;28;20044;-66
2022/03/26 02:02:56;;;;;;;40.72;23.40;;;;;;;;;;5053646;28;20053;-66
2022/03/26 02:05:23;;;;;;;40.95;23.42;;;;;;;;;;5053969;28;20045;-66
2022/03/26 02:07:50;;;;;;;39.25;22.13;;;;;;;;;;5053920;28;20095;-65
2022/03/26 02:10:18;;;;;;;39.85;22.90;;;;;;;;;;5052668;28;20045;-66
2022/03/26 02:12:48;;;;;;;41.42;22.48;;;;;;;;;;5053748;28;20049;-66
2022/03/26 02:15:15;;;;;;;38.75;21.80;;;;;;;;;;5053883;28;20102;-66
2022/03/26 02:17:42;;;;;;;44.03;24.27;;;;;;;;;;5054005;28;20049;-65
2022/03/26 02:20:13;;;;;;;43.83;24.05;;;;;;;;;;5054099;28;20049;-66
2022/03/26 02:22:40;;;;;;;40.10;21.45;;;;;;;;;;5053482;28;20106;-66
2022/03/26 02:25:08;;;;;;;44.63;23.98;;;;;;;;;;5053662;28;20500;-66
2022/03/26 02:27:35;;;;;;;44.30;24.10;;;;;;;;;;5053499;28;20507;-66
2022/03/26 02:30:02;;;;;;;43.92;23.23;;;;;;;;;;5053513;28;20045;-66
2022/03/26 02:32:29;;;;;;;40.13;24.05;;;;;;;;;;5053240;28;20049;-66
2022/03/26 02:34:56;;;;;;;43.47;23.35;;;;;;;;;;5052835;28;20484;-66
2022/03/26 02:37:29;;;;;;;40.10;23.93;;;;;;;;;;5053614;28;20513;-66
2022/03/26 02:39:56;;;;;;;41.97;23.85;;;;;;;;;;5052363;28;20306;-66
2022/03/26 02:42:22;;;;;;;41.05;23.35;;;;;;;;;;5053184;28;20056;-66
2022/03/26 02:44:50;;;;;;;39.53;23.98;;;;;;;;;;5053157;28;20487;-66
2022/03/26 02:47:16;;;;;;;39.15;22.45;;;;;;;;;;5053072;28;20071;-65
2022/03/26 02:49:43;;;;;;;46.83;23.75;;;;;;;;;;5053109;28;20052;-66
2022/03/26 02:52:09;;;;;;;39.78;24.23;;;;;;;;;;5052798;28;20049;-65
2022/03/26 02:54:36;;;;;;;38.38;22.80;;;;;;;;;;5053301;28;20107;-65
2022/03/26 02:57:03;;;;;;;42.85;23.13;;;;;;;;;;5051878;28;20053;-65
2022/03/26 02:59:30;;;;;;;43.72;23.95;;;;;;;;;;5051836;28;20424;-65
2022/03/26 03:01:57;;;;;;;45.25;24.80;;;;;;;;;;5052631;28;20053;-66
2022/03/26 03:04:24;;;;;;;39.55;22.85;;;;;;;;;;5053071;28;20053;-66
2022/03/26 03:06:51;;;;;;;41.70;24.27;;;;;;;;;;5052964;28;20518;-66
2022/03/26 03:09:18;;;;;;;39.75;23.25;;;;;;;;;;5052866;28;20053;-66
2022/03/26 03:11:44;;;;;;;40.33;23.17;;;;;;;;;;5052455;28;20045;-66
2022/03/26 03:14:11;;;;;;;44.03;24.45;;;;;;;;;;5052543;28;20492;-66
2022/03/26 03:16:38;;;;;;;40.03;22.63;;;;;;;;;;5051622;28;20049;-66
2022/03/26 03:19:05;;;;;;;41.58;24.00;;;;;;;;;;5052755;28;20052;-66
2022/03/26 03:21:32;;;;;;;39.17;22.67;;;;;;;;;;5052292;28;20499;-66
2022/03/26 03:23:58;;;;;;;37.75;21.63;;;;;;;;;;5052674;28;20049;-66
2022/03/26 03:26:25;;;;;;;44.78;24.48;;;;;;;;;;5052571;28;20079;-66
2022/03/26 03:28:51;;;;;;;41.55;23.80;;;;;;;;;;5052605;28;20474;-66
2022/03/26 03:31:18;;;;;;;38.45;22.77;;;;;;;;;;5052097;28;20045;-66
2022/03/26 03:33:46;;;;;;;43.05;24.38;;;;;;;;;;5051503;28;20056;-66
2022/03/26 03:36:13;;;;;;;39.95;22.63;;;;;;;;;;5052383;28;20130;-67
2022/03/26 03:38:40;;;;;;;40.95;22.55;;;;;;;;;;5052290;28;20454;-66
2022/03/26 03:41:48;;;;;;;44.17;24.00;;;;;;;;;;5052072;28;20099;-66
2022/03/26 03:47:43;;;;;;;42.80;24.17;;;;;;;;;;5052219;28;20045;-66
2022/03/26 03:50:10;;;;;;;38.38;22.30;;;;;;;;;;5050650;28;20095;-66
2022/03/26 03:52:37;;;;;;;43.05;23.38;;;;;;;;;;5051823;28;20095;-66
2022/03/26 03:55:05;;;;;;;41.15;24.50;;;;;;;;;;5051943;28;20178;-66
2022/03/26 03:57:31;;;;;;;40.78;24.58;;;;;;;;;;5050771;28;20053;-66
2022/03/26 03:59:58;;;;;;;43.08;24.75;;;;;;;;;;5052075;28;20049;-66
2022/03/26 04:02:25;;;;;;;41.47;24.77;;;;;;;;;;5051914;28;20095;-67
2022/03/26 04:04:52;;;;;;;41.55;24.38;;;;;;;;;;5051974;28;20495;-66
2022/03/26 04:07:18;;;;;;;42.88;26.15;;;;;;;;;;5051937;28;20061;-66
2022/03/26 04:09:45;;;;;;;42.42;25.88;;;;;;;;;;5051804;28;20503;-67
2022/03/26 04:12:11;;;;;;;49.95;25.95;;;;;;;;;;5051403;28;20049;-67
2022/03/26 04:14:43;;;;;;;42.78;24.15;;;;;;;;;;5051632;28;20488;-66
2022/03/26 04:17:11;;;;;;;37.50;23.85;;;;;;;;;;5052167;28;20128;-67
2022/03/26 04:19:38;;;;;;;38.35;23.50;;;;;;;;;;5051942;28;20103;-67
2022/03/26 04:22:08;;;;;;;43.78;25.02;;;;;;;;;;5050503;28;20052;-68
2022/03/26 04:24:36;;;;;;;41.55;25.48;;;;;;;;;;5051706;28;20052;-66
2022/03/26 04:27:03;;;;;;;39.72;25.40;;;;;;;;;;5051541;28;20045;-67
2022/03/26 04:29:30;;;;;;;43.92;25.88;;;;;;;;;;5051797;28;20106;-66
2022/03/26 04:31:57;;;;;;;43.22;25.58;;;;;;;;;;5051390;28;20053;-68
2022/03/26 04:34:24;;;;;;;43.95;24.85;;;;;;;;;;5051264;28;20447;-66
2022/03/26 04:36:50;;;;;;;41.28;25.35;;;;;;;;;;5051543;28;20091;-67
2022/03/26 04:39:17;;;;;;;41.33;23.30;;;;;;;;;;5052701;28;20103;-67
2022/03/26 04:41:44;;;;;;;43.08;26.08;;;;;;;;;;5051390;28;20553;-66
2022/03/26 04:44:11;;;;;;;42.97;24.75;;;;;;;;;;5051842;28;20123;-67
2022/03/26 04:46:38;;;;;;;42.83;26.83;;;;;;;;;;5051828;28;20053;-67
2022/03/26 04:49:05;;;;;;;41.97;24.90;;;;;;;;;;5051458;28;20057;-67
2022/03/26 04:51:32;;;;;;;43.92;25.85;;;;;;;;;;5051316;28;20049;-66
2022/03/26 04:53:58;;;;;;;41.65;25.52;;;;;;;;;;5051460;28;20048;-67
2022/03/26 04:56:25;;;;;;;46.33;24.92;;;;;;;;;;5051260;28;20704;-67
2022/03/26 04:58:53;;;;;;;39.88;24.85;;;;;;;;;;5051419;28;20102;-67
2022/03/26 05:01:20;;;;;;;41.30;23.55;;;;;;;;;;5051500;28;20045;-67
2022/03/26 05:03:46;;;;;;;41.05;25.10;;;;;;;;;;5053828;28;20095;-67
2022/03/26 05:06:13;;;;;;;41.97;24.17;;;;;;;;;;5055544;28;20056;-67
2022/03/26 05:08:40;;;;;;;40.22;24.88;;;;;;;;;;5055282;28;20049;-67
2022/03/26 05:11:06;;;;;;;44.08;25.25;;;;;;;;;;5054888;28;20045;-67
2022/03/26 05:13:33;;;;;;;44.70;25.98;;;;;;;;;;5054916;28;20504;-67
2022/03/26 05:16:02;;;;;;;47.22;26.48;;;;;;;;;;5055379;28;20094;-67
2022/03/26 05:18:28;;;;;;;45.17;23.73;;;;;;;;;;5055302;28;20078;-67
2022/03/26 05:20:58;;;;;;;41.28;24.58;;;;;;;;;;5054911;28;20103;-66
2022/03/26 05:23:25;;;;;;;49.13;25.05;;;;;;;;;;5055053;28;20087;-67
2022/03/26 05:25:52;;;;;;;48.03;24.98;;;;;;;;;;5055041;28;20470;-67
2022/03/26 05:28:19;;;;;;;40.60;24.42;;;;;;;;;;5054864;28;20048;-67
2022/03/26 05:30:50;;;;;;;43.83;24.50;;;;;;;;;;5055147;28;20082;-66
2022/03/26 05:33:16;;;;;;;42.60;24.23;;;;;;;;;;5054434;28;20045;-67
2022/03/26 05:35:43;;;;;;;44.97;24.58;;;;;;;;;;5054865;28;20053;-66
2022/03/26 05:38:10;;;;;;;43.03;25.50;;;;;;;;;;5055055;28;20092;-67
2022/03/26 05:40:37;;;;;;;38.35;23.45;;;;;;;;;;5054956;28;20478;-67
2022/03/26 05:43:03;;;;;;;38.95;23.02;;;;;;;;;;5054753;28;20065;-66
2022/03/26 05:45:30;;;;;;;38.22;23.05;;;;;;;;;;5054738;28;20049;-67
2022/03/26 05:47:59;;;;;;;40.30;24.38;;;;;;;;;;5054596;28;20475;-66
2022/03/26 05:50:26;;;;;;;40.95;24.52;;;;;;;;;;5054578;28;20122;-67
2022/03/26 05:52:52;;;;;;;41.20;23.30;;;;;;;;;;5054529;28;20107;-67
2022/03/26 05:55:19;;;;;;;36.92;23.23;;;;;;;;;;5055345;28;20099;-67
2022/03/26 05:57:46;;;;;;;38.60;23.83;;;;;;;;;;5054854;28;20049;-67
2022/03/26 06:00:14;;;;;;;37.53;23.10;;;;;;;;;;5054519;28;20053;-66
2022/03/26 06:02:42;;;;;;;44.70;24.63;;;;;;;;;;5054278;28;20049;-67
2022/03/26 06:05:09;;;;;;;40.08;24.23;;;;;;;;;;5054905;28;20084;-67
2022/03/26 06:07:36;;;;;;;41.42;23.90;;;;;;;;;;5054461;28;20057;-66
2022/03/26 06:10:03;;;;;;;39.20;24.52;;;;;;;;;;5054293;28;20053;-67
2022/03/26 06:12:30;;;;;;;39.03;25.23;;;;;;;;;;5053991;28;20044;-66
2022/03/26 06:14:56;;;;;;;42.45;24.98;;;;;;;;;;5053746;28;20098;-67
2022/03/26 06:17:23;;;;;;;40.10;24.08;;;;;;;;;;5053999;28;20053;-67
2022/03/26 06:19:50;;;;;;;40.75;24.20;;;;;;;;;;5053919;28;20562;-67
2022/03/26 06:22:16;;;;;;;39.70;24.58;;;;;;;;;;5053857;28;20462;-67
2022/03/26 06:24:43;;;;;;;42.92;23.33;;;;;;;;;;5053902;28;20426;-67
2022/03/26 06:27:10;;;;;;;40.05;23.75;;;;;;;;;;5053720;28;20099;-67
2022/03/26 06:29:36;;;;;;;39.75;23.25;;;;;;;;;;5053599;28;20485;-66
2022/03/26 06:32:04;;;;;;;38.17;22.75;;;;;;;;;;5053391;28;20041;-67
2022/03/26 06:34:30;;;;;;;40.13;24.50;;;;;;;;;;5052846;28;20052;-66
2022/03/26 06:36:57;;;;;;;40.55;24.98;;;;;;;;;;5053686;28;20055;-67
2022/03/26 06:39:23;;;;;;;39.67;25.08;;;;;;;;;;5053721;28;20052;-67
2022/03/26 06:41:50;;;;;;;49.40;25.50;;;;;;;;;;5053298;28;20079;-65
2022/03/26 06:44:17;;;;;;;47.47;26.27;;;;;;;;;;5053469;28;20052;-66
2022/03/26 06:46:43;;;;;;;43.60;23.63;;;;;;;;;;5053397;28;20606;-67
2022/03/26 06:49:10;;;;;;;42.00;24.70;;;;;;;;;;5053715;28;20048;-67
2022/03/26 06:51:37;;;;;;;37.92;23.63;;;;;;;;;;5053234;28;20041;-67
2022/03/26 06:54:57;;;;;;;41.40;24.45;;;;;;;;;;5053219;28;20099;-67
2022/03/26 06:57:24;;;;;;;50.55;25.40;;;;;;;;;;5053047;28;20095;-67
2022/03/26 06:59:51;;;;;;;42.20;23.98;;;;;;;;;;5052917;28;20103;-66
2022/03/26 07:02:17;;;;;;;40.88;23.05;;;;;;;;;;5052765;28;20147;-67
2022/03/26 07:04:44;;;;;;;41.28;23.77;;;;;;;;;;5052750;28;20053;-66
2022/03/26 07:07:14;;;;;;;43.10;24.02;;;;;;;;;;5051685;28;20071;-67
2022/03/26 07:09:41;;;;;;;40.03;23.38;;;;;;;;;;5052614;28;20049;-67
2022/03/26 07:12:08;;;;;;;41.10;23.45;;;;;;;;;;5052760;28;20045;-67
2022/03/26 07:14:35;;;;;;;40.40;22.05;;;;;;;;;;5052805;28;20120;-67
2022/03/26 07:17:01;;;;;;;37.17;22.88;;;;;;;;;;5052856;28;20053;-65
2022/03/26 07:19:28;;;;;;;40.22;22.38;;;;;;;;;;5052559;28;20103;-67
2022/03/26 07:21:54;;;;;;;47.22;24.35;;;;;;;;;;5052437;28;20041;-67
2022/03/26 07:24:21;;;;;;;40.50;22.38;;;;;;;;;;5052347;28;20098;-66
2022/03/26 07:26:47;;;;;;;40.33;21.60;;;;;;;;;;5052153;28;20053;-68
2022/03/26 07:29:14;;;;;;;37.00;22.15;;;;;;;;;;5052598;28;20053;-67
2022/03/26 07:31:45;;;;;;;38.15;21.13;;;;;;;;;;5052443;28;20128;-66
2022/03/26 07:34:13;;;;;;;42.72;23.30;;;;;;;;;;5052306;28;20060;-66
2022/03/26 07:36:40;;;;;;;36.35;21.35;;;;;;;;;;5052262;28;20122;-66
2022/03/26 07:39:07;;;;;;;37.53;22.38;;;;;;;;;;5052470;28;20060;-66
2022/03/26 07:41:33;;;;;;;36.75;20.88;;;;;;;;;;5052435;28;20095;-66
2022/03/26 07:44:00;;;;;;;39.20;22.23;;;;;;;;;;5052243;28;20099;-66
2022/03/26 07:46:26;;;;;;;37.15;20.73;;;;;;;;;;5052652;28;20049;-66
2022/03/26 07:48:53;;;;;;;38.05;20.75;;;;;;;;;;5052210;28;20415;-66
2022/03/26 07:51:20;;;;;;;40.35;20.92;;;;;;;;;;5051942;28;20102;-66
2022/03/26 07:53:46;;;;;;;32.35;19.30;;;;;;;;;;5052076;28;20053;-67
2022/03/26 07:56:13;;;;;;;37.65;19.88;;;;;;;;;;5052291;28;20053;-66
2022/03/26 07:58:40;;;;;;;35.90;19.65;;;;;;;;;;5051991;28;20049;-65
2022/03/26 08:01:06;;;;;;;36.63;19.27;;;;;;;;;;5052031;28;20053;-67
2022/03/26 08:03:33;;;;;;;35.22;21.33;;;;;;;;;;5051769;28;20053;-67
2022/03/26 08:06:00;;;;;;;34.90;20.50;;;;;;;;;;5051764;28;20553;-67
2022/03/26 08:08:33;;;;;;;;;;;;;;;;;;5052588;28;20499;-67
2022/03/26 08:11:00;;;;;;;36.03;20.00;;;;;;;;;;5051553;28;19975;-67
2022/03/26 08:13:27;;;;;;;39.83;21.83;;;;;;;;;;5051608;28;20049;-66
2022/03/26 08:15:54;;;;;;;37.55;19.85;;;;;;;;;;5051756;28;20053;-67
2022/03/26 08:18:21;;;;;;;39.42;20.17;;;;;;;;;;5052280;28;20099;-67
2022/03/26 08:20:47;;;;;;;36.05;19.52;;;;;;;;;;5051361;28;20052;-67
2022/03/26 08:23:14;;;;;;;33.90;20.58;;;;;;;;;;5051587;28;20553;-67
2022/03/26 08:28:26;;;;;;;38.33;20.00;;;;;;;;;;5051868;28;20056;-67
2022/03/26 08:30:52;;;;;;;34.33;20.02;;;;;;;;;;5051372;28;20526;-67
2022/03/26 08:33:19;;;;;;;34.58;20.75;;;;;;;;;;5052858;28;20561;-66
2022/03/26 08:35:50;;;;;;;37.25;21.27;;;;;;;;;;5053571;28;20111;-67
2022/03/26 08:38:17;;;;;;;38.80;21.23;;;;;;;;;;5055206;28;20518;-67
2022/03/26 08:40:44;;;;;;;36.60;21.17;;;;;;;;;;5057069;28;20049;-66
2022/03/26 08:43:12;;;;;;;38.85;21.80;;;;;;;;;;5057447;28;20045;-68
2022/03/26 08:45:42;;;;;;;36.30;21.00;;;;;;;;;;5056965;28;20056;-68
2022/03/26 08:48:09;;;;;;;32.60;17.75;;;;;;;;;;5058831;28;20048;-66
2022/03/26 08:50:36;;;;;;;37.80;21.50;;;;;;;;;;5059050;28;20080;-67
2022/03/26 08:53:04;;;;;;;31.77;19.48;;;;;;;;;;5058871;28;20045;-67
2022/03/26 08:55:31;;;;;;;36.60;22.27;;;;;;;;;;5059187;28;20045;-68
2022/03/26 08:57:58;;;;;;;32.88;18.98;;;;;;;;;;5058993;28;20045;-68
2022/03/26 09:00:26;;;;;;;35.47;20.70;;;;;;;;;;5060646;28;20049;-68
2022/03/26 09:02:57;;;;;;;37.45;20.67;;;;;;;;;;5060526;28;20055;-68
2022/03/26 09:05:25;;;;;;;37.45;20.73;;;;;;;;;;5044698;28;20095;-68
2022/03/26 09:07:52;;;;;;;37.50;21.27;;;;;;;;;;5062512;28;20060;-67
2022/03/26 09:10:20;;;;;;;35.03;19.77;;;;;;;;;;5060760;28;20115;-67
2022/03/26 09:12:50;;;;;;;32.40;19.63;;;;;;;;;;5060730;28;20476;-69
2022/03/26 09:15:25;;;;;;;33.40;21.10;;;;;;;;;;5062803;28;20400;-68
2022/03/26 09:18:01;;;;;;;36.58;21.05;;;;;;;;;;5060185;28;20423;-67
2022/03/26 09:20:29;;;;;;;39.20;21.23;;;;;;;;;;5059677;28;20073;-67
2022/03/26 09:22:56;;;;;;;38.80;21.35;;;;;;;;;;5058317;28;20045;-67
2022/03/26 09:25:23;;;;;;;35.33;20.55;;;;;;;;;;5054115;28;20075;-67
2022/03/26 09:27:50;;;;;;;36.97;20.30;;;;;;;;;;5054087;28;20126;-66
2022/03/26 09:30:17;;;;;;;35.45;20.38;;;;;;;;;;5054979;28;20122;-67
2022/03/26 09:32:44;;;;;;;43.53;22.05;;;;;;;;;;5054707;28;20048;-66
2022/03/26 09:35:13;;;;;;;40.53;21.75;;;;;;;;;;5054486;28;20111;-67
2022/03/26 09:37:40;;;;;;;37.03;20.35;;;;;;;;;;5055202;28;20048;-67
2022/03/26 09:40:10;;;;;;;37.47;20.88;;;;;;;;;;5055166;28;20049;-67
2022/03/26 09:42:38;;;;;;;38.00;21.20;;;;;;;;;;5054737;28;20045;-67
2022/03/26 09:45:07;;;;;;;39.95;22.15;;;;;;;;;;5053394;28;20102;-67
2022/03/26 09:47:34;;;;;;;35.55;21.00;;;;;;;;;;5054626;28;20052;-67
2022/03/26 09:50:03;;;;;;;35.67;21.10;;;;;;;;;;5053864;28;20052;-67
2022/03/26 09:52:30;;;;;;;41.17;21.05;;;;;;;;;;5054265;28;20132;-67
2022/03/26 09:54:57;;;;;;;40.42;21.70;;;;;;;;;;5054511;28;20098;-67
2022/03/26 09:57:24;;;;;;;41.80;21.30;;;;;;;;;;5054766;28;20052;-67
2022/03/26 09:59:50;;;;;;;38.15;22.17;;;;;;;;;;5054540;28;20053;-67
2022/03/26 10:02:20;;;;;;;41.55;21.48;;;;;;;;;;5054168;28;20049;-66
2022/03/26 10:04:47;;;;;;;36.17;22.10;;;;;;;;;;5053915;28;20443;-67
2022/03/26 10:07:14;;;;;;;40.10;21.60;;;;;;;;;;5054302;28;20045;-67
2022/03/26 10:09:45;;;;;;;35.72;21.08;;;;;;;;;;5054240;28;20495;-67
2022/03/26 10:12:16;;;;;;;43.95;22.58;;;;;;;;;;5054195;28;20446;-67
2022/03/26 10:14:47;;;;;;;58.60;24.05;;;;;;;;;;5053917;28;20049;-67
2022/03/26 10:17:33;;;;;;;50.67;22.55;;;;;;;;;;5053703;28;20053;-67
2022/03/26 10:20:04;;;;;;;39.88;22.27;;;;;;;;;;5053847;28;20079;-67
2022/03/26 10:22:34;;;;;;;37.15;22.63;;;;;;;;;;5052203;28;20553;-67
2022/03/26 10:25:08;;;;;;;39.95;23.13;;;;;;;;;;5053730;28;20087;-67
2022/03/26 10:27:36;;;;;;;40.13;21.23;;;;;;;;;;5053556;28;20053;-67
2022/03/26 10:33:22;;;;;;;36.08;22.30;;;;;;;;;;5053520;28;20053;-67
2022/03/26 10:35:56;;;;;;;40.40;22.30;;;;;;;;;;5053380;28;20064;-67
2022/03/26 10:38:42;;;;;;;40.47;23.08;;;;;;;;;;5053465;28;20056;-67
2022/03/26 10:41:09;;;;;;;37.55;22.65;;;;;;;;;;5053313;28;20084;-67
2022/03/26 10:43:37;;;;;;;36.90;22.08;;;;;;;;;;5053375;28;20095;-67
2022/03/26 10:46:03;;;;;;;38.15;21.73;;;;;;;;;;5053281;28;20106;-67
2022/03/26 10:48:34;;;;;;;33.03;19.60;;;;;;;;;;5053228;28;20055;-67
2022/03/26 10:51:02;;;;;;;31.25;19.27;;;;;;;;;;5052998;28;20084;-67
2022/03/26 10:53:40;;;;;;;29.98;17.70;;;;;;;;;;5052672;28;20075;-67
2022/03/26 10:56:08;;;;;;;34.05;18.27;;;;;;;;;;5055682;28;20512;-67
2022/03/26 10:58:36;;;;;;;25.90;16.83;;;;;;;;;;5053691;28;20060;-67
2022/03/26 11:01:03;;;;;;;32.33;19.83;;;;;;;;;;5051669;28;20045;-67
2022/03/26 11:03:30;;;;;;;34.67;18.38;;;;;;;;;;5052794;28;20049;-67
2022/03/26 11:05:58;;;;;;;31.02;17.30;;;;;;;;;;5053093;28;20052;-67
2022/03/26 11:08:29;;;;;;;26.80;18.10;;;;;;;;;;5054343;28;20053;-67
2022/03/26 11:10:56;;;;;;;29.10;18.45;;;;;;;;;;5053289;28;20053;-67
2022/03/26 11:13:24;;;;;;;29.92;17.48;;;;;;;;;;5051392;28;20041;-67
2022/03/26 11:15:56;;;;;;;27.10;17.00;;;;;;;;;;5053117;28;20045;-67
2022/03/26 11:19:07;;;;;;;29.13;16.92;;;;;;;;;;5051858;28;20052;-67
2022/03/26 11:22:12;;;;;;;26.00;17.73;;;;;;;;;;5037376;28;20052;-67
2022/03/26 11:25:02;;;;;;;25.33;16.63;;;;;;;;;;5051754;28;20583;-67
2022/03/26 11:28:06;;;;;;;27.88;16.90;;;;;;;;;;5051503;28;20117;-67
2022/03/26 11:30:49;;;;;;;33.58;17.42;;;;;;;;;;5052744;28;20397;-67
2022/03/26 11:33:17;;;;;;;27.48;16.75;;;;;;;;;;5035602;28;20115;-68
2022/03/26 11:35:58;;;;;;;31.80;17.10;;;;;;;;;;5051246;28;20083;-67
2022/03/26 11:38:29;;;;;;;25.92;15.88;;;;;;;;;;5052448;28;20528;-67
2022/03/26 11:41:04;;;;;;;26.08;16.92;;;;;;;;;;5052217;28;20511;-67
2022/03/26 11:43:43;;;;;;;26.85;16.92;;;;;;;;;;5051240;28;20053;-67
2022/03/26 11:51:59;;;;;;;27.98;16.58;;;;;;;;;;5052111;28;20053;-67
2022/03/26 11:54:25;;;;;;;32.08;17.00;;;;;;;;;;5052416;28;20059;-67
2022/03/26 11:57:21;;;;;;;26.05;15.90;;;;;;;;;;5052048;28;20466;-67
2022/03/26 11:59:48;;;;;;;25.40;17.38;;;;;;;;;;5052505;28;20103;-67
2022/03/26 12:02:29;;;;;;;27.73;16.83;;;;;;;;;;5051882;28;20049;-67
2022/03/26 12:04:58;;;;;;;29.77;16.02;;;;;;;;;;5052136;28;20048;-67
2022/03/26 12:07:29;;;;;;;31.63;17.13;;;;;;;;;;5051917;28;20049;-67
2022/03/26 12:10:04;;;;;;;24.38;15.90;;;;;;;;;;5052463;28;20045;-67
2022/03/26 12:13:03;;;;;;;25.92;16.25;;;;;;;;;;5051556;28;20049;-67
2022/03/26 12:15:34;;;;;;;25.67;16.88;;;;;;;;;;5051168;28;20064;-67
2022/03/26 12:18:14;;;;;;;30.40;16.00;;;;;;;;;;5051726;28;20053;-67
2022/03/26 12:20:45;;;;;;;29.40;16.38;;;;;;;;;;5052107;28;20062;-67
2022/03/26 12:23:19;;;;;;;26.58;15.60;;;;;;;;;;5051606;28;20049;-67
2022/03/26 12:25:50;;;;;;;29.35;15.45;;;;;;;;;;5051952;28;20128;-67
2022/03/26 12:28:26;;;;;;;24.50;14.65;;;;;;;;;;5051776;28;20419;-67
2022/03/26 12:30:54;;;;;;;20.98;13.95;;;;;;;;;;5051896;28;20076;-67
2022/03/26 12:33:22;;;;;;;22.35;14.63;;;;;;;;;;5051109;28;20472;-67
2022/03/26 12:35:53;;;;;;;23.48;14.30;;;;;;;;;;5050538;28;20071;-67
2022/03/26 12:38:21;;;;;;;20.63;13.63;;;;;;;;;;5050727;28;20053;-67
2022/03/26 12:40:59;;;;;;;21.10;14.88;;;;;;;;;;5051491;28;20654;-67
2022/03/26 12:43:25;;;;;;;23.67;14.45;;;;;;;;;;5050534;28;20087;-67
2022/03/26 12:45:53;;;;;;;17.15;13.02;;;;;;;;;;5051529;28;20419;-67
2022/03/26 12:48:26;;;;;;;24.05;14.90;;;;;;;;;;5051617;28;20083;-67
2022/03/26 12:50:53;;;;;;;23.58;14.73;;;;;;;;;;5051459;28;20056;-67
2022/03/26 12:53:20;;;;;;;20.73;14.77;;;;;;;;;;5051269;28;20049;-67
2022/03/26 12:55:57;;;;;;;20.42;13.73;;;;;;;;;;5051684;28;20118;-67
2022/03/26 13:01:14;;;;;;;18.30;13.23;;;;;;;;;;5051359;28;20053;-67
2022/03/26 13:03:42;;;;;;;21.27;12.80;;;;;;;;;;5051437;28;20052;-67
2022/03/26 13:06:11;;;;;;;20.63;13.60;;;;;;;;;;5051291;28;20582;-67
2022/03/26 13:08:40;;;;;;;20.27;13.73;;;;;;;;;;5051585;28;20053;-67
2022/03/26 13:11:08;;;;;;;21.83;13.30;;;;;;;;;;5051116;28;20087;-67
2022/03/26 13:13:44;;;;;;;17.20;13.75;;;;;;;;;;5051212;28;20071;-67
2022/03/26 13:16:15;;;;;;;19.77;14.38;;;;;;;;;;5051372;28;20087;-67
2022/03/26 13:18:47;;;;;;;23.58;13.43;;;;;;;;;;5051440;28;20056;-67
2022/03/26 13:21:15;;;;;;;16.40;12.90;;;;;;;;;;5051010;28;20508;-67
2022/03/26 13:23:56;;;;;;;15.90;12.32;;;;;;;;;;5051720;28;20496;-67
2022/03/26 13:26:43;;;;;;;20.38;13.25;;;;;;;;;;5012971;28;20413;-67
2022/03/26 13:29:19;;;;;;;22.48;13.13;;;;;;;;;;5013117;28;20121;-67
2022/03/26 13:31:51;;;;;;;20.35;12.77;;;;;;;;;;5012757;28;20050;-67
2022/03/26 13:34:22;;;;;;;19.70;12.63;;;;;;;;;;5012160;28;20054;-67
2022/03/26 13:36:49;;;;;;;21.40;13.18;;;;;;;;;;5013070;28;20050;-67
2022/03/26 13:39:25;;;;;;;18.80;13.02;;;;;;;;;;5012771;28;20058;-67
2022/03/26 13:41:52;;;;;;;18.50;13.75;;;;;;;;;;5015845;28;20050;-67
2022/03/26 13:44:19;;;;;;;18.92;12.82;;;;;;;;;;5012615;28;20061;-67
2022/03/26 13:46:46;;;;;;;20.38;13.65;;;;;;;;;;5012581;28;20050;-67
2022/03/26 13:49:33;;;;;;;15.55;11.32;;;;;;;;;;4996150;28;20077;-67
2022/03/26 13:52:07;;;;;;;18.15;12.80;;;;;;;;;;5012164;28;20602;-67
2022/03/26 13:54:34;;;;;;;19.80;12.30;;;;;;;;;;4996957;28;20100;-67
2022/03/26 13:57:03;;;;;;;20.30;12.32;;;;;;;;;;5025799;28;20049;-67
2022/03/26 13:59:35;;;;;;;20.00;13.10;;;;;;;;;;5054355;28;20056;-67
2022/03/26 14:02:06;;;;;;;18.10;12.65;;;;;;;;;;5052839;28;20048;-67
2022/03/26 14:04:35;;;;;;;19.38;12.23;;;;;;;;;;5053211;28;20096;-67
2022/03/26 14:07:02;;;;;;;19.65;13.25;;;;;;;;;;5054345;28;20114;-67
2022/03/26 14:09:29;;;;;;;16.08;11.68;;;;;;;;;;5054255;28;20086;-67
2022/03/26 14:11:56;;;;;;;18.55;13.00;;;;;;;;;;5053931;28;20045;-67
2022/03/26 14:14:22;;;;;;;17.05;11.65;;;;;;;;;;5053838;28;20061;-68
2022/03/26 14:16:49;;;;;;;14.60;11.02;;;;;;;;;;5053893;28;20414;-67
2022/03/26 14:19:16;;;;;;;21.30;12.63;;;;;;;;;;5054320;28;20086;-67
2022/03/26 14:21:43;;;;;;;16.35;12.27;;;;;;;;;;5052663;28;20053;-67
2022/03/26 14:24:09;;;;;;;18.20;11.90;;;;;;;;;;5053805;28;20056;-67
2022/03/26 14:26:36;;;;;;;17.67;11.68;;;;;;;;;;5053834;28;20057;-67
2022/03/26 14:29:03;;;;;;;16.13;11.63;;;;;;;;;;5053713;28;20569;-67
2022/03/26 14:31:29;;;;;;;19.58;11.68;;;;;;;;;;5053511;28;20059;-67
2022/03/26 14:33:56;;;;;;;17.63;12.07;;;;;;;;;;5052699;28;20052;-67
2022/03/26 14:36:37;;;;;;;16.98;11.80;;;;;;;;;;5054258;28;20049;-67
2022/03/26 14:39:04;;;;;;;18.40;11.65;;;;;;;;;;5053476;28;20467;-67
2022/03/26 14:41:30;;;;;;;18.08;12.45;;;;;;;;;;5053353;28;20488;-67
2022/03/26 14:43:57;;;;;;;18.42;12.30;;;;;;;;;;5053609;28;20075;-67
2022/03/26 14:46:24;;;;;;;15.82;11.25;;;;;;;;;;5053841;28;20060;-67